Time;durP1;ratioP1;P1;durP2;ratioP2;P2;SDS_P1;SDS_P2;PMS_P1;PMS_P2;Temp;Humidity;BMP_temperature;BMP_pressure;BME280_temperature;BME280_humidity;BME280_pressure;Samples;Min_cycle;Max_cycle;Signal;HPM_P1;HPM_P2
2023/09/05 00:00:02;;;;;;;;;;;;;;;28.41;33.26;100986.06;5115265;28;19923;-65
2023/09/05 00:02:28;;;;;;;;;;;;;;;28.33;33.11;100979.28;5104484;28;19912;-65
2023/09/05 00:04:54;;;;;;;;;;;;;;;28.29;33.52;100984.59;5096190;28;20270;-65
2023/09/05 00:07:19;;;;;;;;;;;;;;;28.23;33.03;100987.72;5095082;28;19954;-65
2023/09/05 00:09:44;;;;;;;;;;;;;;;28.22;33.56;100984.16;5094338;28;19919;-65
2023/09/05 00:12:10;;;;;;;;;;;;;;;28.28;33.35;100973.84;5094867;28;19939;-65
2023/09/05 00:14:35;;;;;;;;;;;;;;;28.24;33.03;100972.81;5094621;28;20370;-65
2023/09/05 00:17:01;;;;;;;;;;;;;;;28.15;33.39;100970.72;5094396;28;19955;-69
2023/09/05 00:19:26;;;;;;;;;;;;;;;28.12;33.22;100973.25;5094636;28;19920;-66
2023/09/05 00:21:51;;;;;;;;;;;;;;;28.09;33.31;100980.22;5094442;28;19913;-66
2023/09/05 00:24:27;;;;;;;;;;;;;;;28.09;33.11;100982.97;5094477;28;19912;-66
2023/09/05 00:26:53;;;;;;;;;;;;;;;28.07;33.36;100984.41;5094329;28;19912;-65
2023/09/05 00:29:19;;;;;;;;;;;;;;;28.05;33.27;100981.94;5094402;28;19919;-66
2023/09/05 00:31:46;;;;;;;;;;;;;;;28.02;33.38;100990.81;5094509;28;19916;-65
2023/09/05 00:34:12;;;;;;;;;;;;;;;27.98;33.32;100987.00;5094493;28;19919;-65
2023/09/05 00:36:39;;;;;;;;;;;;;;;27.92;33.44;100994.53;5094238;28;19912;-64
2023/09/05 00:39:05;;;;;;;;;;;;;;;27.86;34.34;101001.22;5093407;28;20012;-65
2023/09/05 00:41:30;;;;;;;;;;;;;;;27.89;33.46;100992.38;5093929;28;19985;-65
2023/09/05 00:43:56;;;;;;;;;;;;;;;27.87;33.44;100986.28;5094233;28;19912;-65
2023/09/05 00:46:21;;;;;;;;;;;;;;;27.81;33.45;100993.81;5093669;28;19912;-65
2023/09/05 00:48:46;;;;;;;;;;;;;;;27.78;33.71;100990.84;5092446;28;19911;-65
2023/09/05 00:51:12;;;;;;;;;;;;;;;27.84;33.61;100991.59;5093457;28;19992;-65
2023/09/05 00:53:38;;;;;;;;;;;;;;;27.76;33.69;100985.59;5093496;28;20271;-65
2023/09/05 00:56:03;;;;;;;;;;;;;;;27.70;33.70;100995.06;5105486;28;19915;-65
2023/09/05 00:58:28;;;;;;;;;;;;;;;27.77;33.61;100997.50;5114226;28;19916;-65
2023/09/05 01:00:54;;;;;;;;;;;;;;;27.78;33.43;101005.44;5114203;28;19937;-65
2023/09/05 01:03:19;;;;;;;;;;;;;;;27.81;33.26;101002.09;5093895;28;19994;-65
2023/09/05 01:05:46;;;;;;;;;;;;;;;27.84;33.22;101002.63;5093623;28;19916;-65
2023/09/05 01:08:17;;;;;;;;;;;;;;;27.78;33.27;100999.09;5093232;28;19918;-65
2023/09/05 01:10:43;;;;;;;;;;;;;;;27.76;33.19;100993.06;5093553;28;19916;-65
2023/09/05 01:13:09;;;;;;;;;;;;;;;27.73;33.46;100993.66;5093669;28;20660;-65
2023/09/05 01:15:34;;;;;;;;;;;;;;;27.75;33.36;100999.72;5093457;28;19916;-65
2023/09/05 01:17:59;;;;;;;;;;;;;;;27.72;33.29;100992.84;5093247;28;19982;-65
2023/09/05 01:20:30;;;;;;;;;;;;;;;27.69;33.30;100996.22;5093171;28;19916;-65
2023/09/05 01:23:05;;;;;;;;;;;;;;;27.63;33.46;100991.84;5086934;28;19916;-65
2023/09/05 01:25:31;;;;;;;;;;;;;;;27.63;33.49;100983.56;5073196;28;19913;-65
2023/09/05 01:28:00;;;;;;;;;;;;;;;27.53;33.95;100984.53;5071558;28;19913;-65
2023/09/05 01:30:27;;;;;;;;;;;;;;;27.55;33.51;100985.06;5072716;28;20391;-65
2023/09/05 01:32:52;;;;;;;;;;;;;;;27.59;34.07;100990.81;5073088;28;19919;-65
2023/09/05 01:35:17;;;;;;;;;;;;;;;27.65;33.80;100973.06;5086750;28;19916;-65
2023/09/05 01:37:43;;;;;;;;;;;;;;;27.61;33.35;100977.53;5093014;28;19912;-65
2023/09/05 01:40:08;;;;;;;;;;;;;;;27.59;33.44;100977.00;5093005;28;19931;-65
2023/09/05 01:42:33;;;;;;;;;;;;;;;27.57;33.67;100980.06;5093039;28;19963;-65
2023/09/05 01:44:58;;;;;;;;;;;;;;;27.56;33.91;100983.13;5093288;28;19966;-65
2023/09/05 01:47:25;;;;;;;;;;;;;;;27.48;33.42;100979.06;5093928;28;19916;-65
2023/09/05 01:49:50;;;;;;;;;;;;;;;27.50;33.66;100982.34;5093312;28;19912;-65
2023/09/05 01:52:15;;;;;;;;;;;;;;;27.47;33.77;100994.00;5093014;28;19924;-65
2023/09/05 01:54:40;;;;;;;;;;;;;;;27.41;33.64;100987.72;5095748;28;19944;-65
2023/09/05 01:57:06;;;;;;;;;;;;;;;27.42;33.62;100983.84;5116966;28;19912;-65
2023/09/05 01:59:31;;;;;;;;;;;;;;;27.38;33.65;100974.50;5112923;28;19916;-65
2023/09/05 02:01:56;;;;;;;;;;;;;;;27.33;33.87;100971.81;5106156;28;19932;-64
2023/09/05 02:04:21;;;;;;;;;;;;;;;27.32;33.72;100977.63;5092640;28;19927;-65
2023/09/05 02:06:47;;;;;;;;;;;;;;;27.27;33.83;100972.19;5093070;28;19919;-65
2023/09/05 02:09:12;;;;;;;;;;;;;;;27.29;33.66;100972.69;5075578;28;20471;-65
2023/09/05 02:11:37;;;;;;;;;;;;;;;27.22;33.74;100967.50;5072842;28;20456;-65
2023/09/05 02:14:03;;;;;;;;;;;;;;;27.16;33.81;100972.25;5079210;28;20361;-65
2023/09/05 02:16:28;;;;;;;;;;;;;;;27.22;33.80;100973.81;5091698;28;19951;-65
2023/09/05 02:18:53;;;;;;;;;;;;;;;27.14;34.28;100968.16;5091555;28;19916;-65
2023/09/05 02:21:19;;;;;;;;;;;;;;;27.07;34.63;100962.97;5092651;28;20306;-65
2023/09/05 02:23:44;;;;;;;;;;;;;;;27.10;34.42;100959.66;5092740;28;19962;-64
2023/09/05 02:26:10;;;;;;;;;;;;;;;27.07;34.27;100962.16;5092710;28;20025;-65
2023/09/05 02:28:37;;;;;;;;;;;;;;;27.06;34.26;100971.53;5091041;28;19916;-65
2023/09/05 02:31:03;;;;;;;;;;;;;;;27.09;33.96;100962.69;5092471;28;19912;-65
2023/09/05 02:33:29;;;;;;;;;;;;;;;27.09;33.81;100968.22;5092552;28;19912;-63
2023/09/05 02:36:04;;;;;;;;;;;;;;;27.04;34.03;100966.31;5092523;28;19916;-63
2023/09/05 02:38:30;;;;;;;;;;;;;;;27.02;34.21;100960.28;5092480;28;19943;-63
2023/09/05 02:40:55;;;;;;;;;;;;;;;27.02;34.27;100955.59;5092534;28;19966;-63
2023/09/05 02:43:20;;;;;;;;;;;;;;;27.01;34.29;100958.66;5092249;28;19912;-63
2023/09/05 02:45:52;;;;;;;;;;;;;;;27.00;34.04;100956.97;5092767;28;19912;-63
2023/09/05 02:48:17;;;;;;;;;;;;;;;26.96;33.93;100958.69;5092400;28;19912;-63
2023/09/05 02:50:42;;;;;;;;;;;;;;;26.93;33.97;100951.84;5092513;28;19954;-63
2023/09/05 02:53:08;;;;;;;;;;;;;;;26.89;33.97;100955.44;5092551;28;20648;-63
2023/09/05 02:55:34;;;;;;;;;;;;;;;26.88;34.00;100942.81;5099105;28;19918;-63
2023/09/05 02:58:00;;;;;;;;;;;;;;;26.84;33.98;100939.81;5112818;28;19911;-63
2023/09/05 03:00:25;;;;;;;;;;;;;;;26.78;34.16;100933.53;5111459;28;20295;-63
2023/09/05 03:02:52;;;;;;;;;;;;;;;26.83;34.16;100930.69;5099342;28;19912;-64
2023/09/05 03:05:17;;;;;;;;;;;;;;;26.79;34.39;100937.09;5075487;28;19920;-64
2023/09/05 03:07:44;;;;;;;;;;;;;;;26.77;34.30;100948.41;5075484;28;19923;-64
2023/09/05 03:10:09;;;;;;;;;;;;;;;26.70;34.38;100947.09;5081051;28;20019;-64
2023/09/05 03:12:34;;;;;;;;;;;;;;;26.72;34.37;100947.63;5095521;28;20427;-65
2023/09/05 03:15:00;;;;;;;;;;;;;;;26.68;34.33;100946.59;5094526;28;19919;-65
2023/09/05 03:17:25;;;;;;;;;;;;;;;26.60;34.67;100940.59;5095873;28;20302;-65
2023/09/05 03:19:50;;;;;;;;;;;;;;;26.64;34.53;100949.09;5095686;28;19923;-64
2023/09/05 03:22:16;;;;;;;;;;;;;;;26.62;34.46;100951.31;5096089;28;20414;-64
2023/09/05 03:24:41;;;;;;;;;;;;;;;26.60;34.46;100951.59;5095665;28;19918;-64
2023/09/05 03:27:06;;;;;;;;;;;;;;;26.60;34.98;100945.28;5095571;28;19950;-64
2023/09/05 03:29:32;;;;;;;;;;;;;;;26.57;34.75;100943.06;5094232;28;19937;-64
2023/09/05 03:31:57;;;;;;;;;;;;;;;26.62;34.38;100946.63;5095517;28;19920;-64
2023/09/05 03:34:22;;;;;;;;;;;;;;;26.56;35.03;100957.94;5095449;28;19966;-64
2023/09/05 03:36:48;;;;;;;;;;;;;;;26.49;35.27;100969.31;5095341;28;19915;-64
2023/09/05 03:39:14;;;;;;;;;;;;;;;26.48;34.51;100964.06;5095190;28;19960;-64
2023/09/05 03:41:39;;;;;;;;;;;;;;;26.43;34.57;100937.41;5095143;28;20129;-64
2023/09/05 03:44:04;;;;;;;;;;;;;;;26.47;34.76;100927.44;5094640;28;19920;-63
2023/09/05 03:46:29;;;;;;;;;;;;;;;26.45;34.67;100932.44;5095297;28;19919;-64
2023/09/05 03:48:57;;;;;;;;;;;;;;;26.43;34.47;100926.41;5095037;28;19912;-64
2023/09/05 03:51:22;;;;;;;;;;;;;;;26.36;34.79;100917.63;5094972;28;20356;-64
2023/09/05 03:53:49;;;;;;;;;;;;;;;26.36;34.98;100910.19;5094819;28;19919;-64
2023/09/05 03:56:14;;;;;;;;;;;;;;;26.34;34.61;100923.44;5108521;28;20002;-64
2023/09/05 03:58:40;;;;;;;;;;;;;;;26.32;34.71;100930.31;5115605;28;19999;-64
2023/09/05 04:01:11;;;;;;;;;;;;;;;26.29;34.71;100925.41;5098407;28;19924;-64
2023/09/05 04:03:36;;;;;;;;;;;;;;;26.30;34.66;100924.28;5074666;28;19924;-64
2023/09/05 04:06:02;;;;;;;;;;;;;;;26.25;34.79;100938.94;5077095;28;19913;-64
2023/09/05 04:08:27;;;;;;;;;;;;;;;26.25;34.27;100934.22;5093473;28;19919;-64
2023/09/05 04:10:59;;;;;;;;;;;;;;;26.21;34.63;100935.94;5094602;28;19951;-64
2023/09/05 04:13:25;;;;;;;;;;;;;;;26.19;35.13;100938.16;5094560;28;20394;-63
2023/09/05 04:15:50;;;;;;;;;;;;;;;26.19;34.36;100942.84;5094817;28;19912;-64
2023/09/05 04:18:16;;;;;;;;;;;;;;;26.13;34.55;100942.03;5094868;28;19912;-64
2023/09/05 04:20:41;;;;;;;;;;;;;;;26.11;34.55;100940.69;5094343;28;20454;-64
2023/09/05 04:23:06;;;;;;;;;;;;;;;26.13;34.60;100932.94;5094428;28;20041;-64
2023/09/05 04:25:32;;;;;;;;;;;;;;;26.08;34.50;100925.56;5094411;28;19951;-64
2023/09/05 04:27:58;;;;;;;;;;;;;;;26.07;34.40;100921.16;5094341;28;19913;-64
2023/09/05 04:30:23;;;;;;;;;;;;;;;26.05;34.41;100937.16;5094212;28;19912;-64
2023/09/05 04:32:48;;;;;;;;;;;;;;;26.05;34.57;100945.41;5094212;28;19975;-64
2023/09/05 04:35:14;;;;;;;;;;;;;;;26.07;34.52;100944.00;5094301;28;19923;-64
2023/09/05 04:37:39;;;;;;;;;;;;;;;26.03;34.49;100951.19;5094235;28;19916;-64
2023/09/05 04:40:07;;;;;;;;;;;;;;;26.05;34.47;100943.47;5094217;28;19966;-64
2023/09/05 04:42:32;;;;;;;;;;;;;;;26.05;34.57;100937.97;5087569;28;20229;-64
2023/09/05 04:44:57;;;;;;;;;;;;;;;26.05;34.38;100942.66;5074191;28;19912;-65
2023/09/05 04:47:24;;;;;;;;;;;;;;;26.06;34.59;100947.88;5073645;28;20552;-64
2023/09/05 04:49:53;;;;;;;;;;;;;;;26.07;34.54;100946.75;5073601;28;19955;-64
2023/09/05 04:52:19;;;;;;;;;;;;;;;26.14;34.42;100935.44;5074061;28;19994;-64
2023/09/05 04:54:45;;;;;;;;;;;;;;;26.20;34.55;100949.97;5074633;28;20473;-64
2023/09/05 04:57:11;;;;;;;;;;;;;;;26.20;34.43;100945.28;5086608;28;19916;-64
2023/09/05 04:59:37;;;;;;;;;;;;;;;26.19;34.54;100943.66;5073456;28;20027;-64
2023/09/05 05:02:03;;;;;;;;;;;;;;;26.19;34.54;100951.09;5073838;28;20408;-64
2023/09/05 05:04:29;;;;;;;;;;;;;;;26.23;34.85;100946.66;5093446;28;19943;-64
2023/09/05 05:06:54;;;;;;;;;;;;;;;26.23;34.56;100944.72;5093754;28;19963;-64
2023/09/05 05:09:19;;;;;;;;;;;;;;;26.26;34.57;100954.31;5093625;28;19922;-65
2023/09/05 05:11:44;;;;;;;;;;;;;;;26.33;34.43;100959.50;5092475;28;19970;-64
2023/09/05 05:14:12;;;;;;;;;;;;;;;26.44;34.44;100956.38;5093061;28;21362;-64
2023/09/05 05:16:37;;;;;;;;;;;;;;;26.51;34.92;100969.03;5093511;28;20027;-64
2023/09/05 05:19:03;;;;;;;;;;;;;;;26.55;34.41;100970.09;5093352;28;19916;-64
2023/09/05 05:21:28;;;;;;;;;;;;;;;26.55;34.57;100970.91;5092175;28;19962;-65
2023/09/05 05:23:55;;;;;;;;;;;;;;;26.53;34.84;100964.03;5092974;28;20502;-64
2023/09/05 05:26:20;;;;;;;;;;;;;;;26.52;34.67;100965.94;5091471;28;20382;-64
2023/09/05 05:28:45;;;;;;;;;;;;;;;26.58;34.75;100972.28;5093257;28;19919;-64
2023/09/05 05:31:13;;;;;;;;;;;;;;;26.60;34.55;100970.06;5093049;28;20443;-64
2023/09/05 05:33:39;;;;;;;;;;;;;;;26.64;34.56;100976.66;5093320;28;19938;-64
2023/09/05 05:36:04;;;;;;;;;;;;;;;26.62;34.76;100968.66;5093084;28;20412;-64
2023/09/05 05:38:30;;;;;;;;;;;;;;;26.51;34.86;100975.34;5092758;28;19920;-64
2023/09/05 05:40:56;;;;;;;;;;;;;;;26.58;34.57;100972.28;5092905;28;19916;-65
2023/09/05 05:43:21;;;;;;;;;;;;;;;26.60;35.07;100981.09;5092473;28;20292;-65
2023/09/05 05:45:51;;;;;;;;;;;;;;;26.66;34.97;100974.41;5093027;28;19912;-65
2023/09/05 05:48:16;;;;;;;;;;;;;;;26.70;34.67;100982.94;5093151;28;19916;-65
2023/09/05 05:50:42;;;;;;;;;;;;;;;26.74;34.90;100975.72;5093207;28;19916;-65
2023/09/05 05:53:07;;;;;;;;;;;;;;;26.78;34.61;100979.53;5092978;28;20301;-64
2023/09/05 05:55:32;;;;;;;;;;;;;;;26.81;34.61;100968.75;5092182;28;19920;-65
2023/09/05 05:57:57;;;;;;;;;;;;;;;26.80;35.08;100963.53;5092902;28;20049;-65
2023/09/05 06:00:25;;;;;;;;;;;;;;;26.75;34.85;100958.09;5092785;28;19920;-65
2023/09/05 06:02:50;;;;;;;;;;;;;;;26.77;34.83;100953.91;5080897;28;19919;-65
2023/09/05 06:05:16;;;;;;;;;;;;;;;26.80;34.77;100958.84;5092732;28;19924;-65
2023/09/05 06:07:41;;;;;;;;;;;;;;;26.75;34.83;100966.34;5092991;28;19916;-65
2023/09/05 06:10:06;;;;;;;;;;;;;;;26.69;35.34;100971.09;5092700;28;19912;-65
2023/09/05 06:12:32;;;;;;;;;;;;;;;26.70;34.89;100975.47;5092470;28;19951;-65
2023/09/05 06:14:57;;;;;;;;;;;;;;;26.75;34.89;100977.38;5092937;28;19919;-65
2023/09/05 06:17:22;;;;;;;;;;;;;;;26.71;34.84;100968.03;5092707;28;20287;-65
2023/09/05 06:19:48;;;;;;;;;;;;;;;26.62;34.89;100954.06;5092544;28;19948;-65
2023/09/05 06:22:13;;;;;;;;;;;;;;;26.61;35.01;100963.44;5092451;28;19912;-65
2023/09/05 06:24:38;;;;;;;;;;;;;;;26.61;35.08;100955.97;5092697;28;19935;-65
2023/09/05 06:27:04;;;;;;;;;;;;;;;26.65;34.91;100967.25;5092630;28;19916;-65
2023/09/05 06:29:29;;;;;;;;;;;;;;;26.74;35.00;100978.47;5093083;28;19916;-65
2023/09/05 06:31:55;;;;;;;;;;;;;;;26.80;34.60;100974.53;5092905;28;20344;-65
2023/09/05 06:34:20;;;;;;;;;;;;;;;26.88;34.59;100979.44;5092638;28;20305;-65
2023/09/05 06:36:45;;;;;;;;;;;;;;;26.94;34.75;100974.69;5092484;28;19912;-65
2023/09/05 06:39:11;;;;;;;;;;;;;;;26.98;34.70;100976.56;5096422;28;19920;-65
2023/09/05 06:41:37;;;;;;;;;;;;;;;27.03;34.86;100978.47;5096776;28;19958;-65
2023/09/05 06:44:02;;;;;;;;;;;;;;;27.07;34.71;100970.44;5096569;28;19935;-65
2023/09/05 06:46:27;;;;;;;;;;;;;;;27.08;34.60;100975.66;5096416;28;19912;-65
2023/09/05 06:48:53;;;;;;;;;;;;;;;27.06;34.40;100983.41;5096229;28;20379;-65
2023/09/05 06:51:19;;;;;;;;;;;;;;;27.09;34.50;100993.84;5096540;28;20296;-65
2023/09/05 06:53:44;;;;;;;;;;;;;;;27.12;34.99;100984.19;5095807;28;19916;-65
2023/09/05 06:56:09;;;;;;;;;;;;;;;27.13;34.76;100981.09;5109108;28;20333;-65
2023/09/05 06:58:35;;;;;;;;;;;;;;;27.19;34.54;100995.66;5116816;28;20360;-65
2023/09/05 07:01:03;;;;;;;;;;;;;;;27.26;34.57;100996.16;5099936;28;19963;-65
2023/09/05 07:03:29;;;;;;;;;;;;;;;27.40;34.40;100990.78;5075882;28;20014;-65
2023/09/05 07:05:54;;;;;;;;;;;;;;;27.50;34.30;100987.88;5075791;28;20007;-65
2023/09/05 07:08:19;;;;;;;;;;;;;;;27.63;34.13;100988.28;5075654;28;19952;-65
2023/09/05 07:10:46;;;;;;;;;;;;;;;27.59;34.13;100997.16;5075368;28;19966;-65
2023/09/05 07:13:12;;;;;;;;;;;;;;;27.52;34.61;100998.63;5075725;28;20488;-65
2023/09/05 07:15:37;;;;;;;;;;;;;;;27.79;34.21;101001.59;5075285;28;19912;-65
2023/09/05 07:18:02;;;;;;;;;;;;;;;28.02;33.95;101001.03;5075591;28;19949;-65
2023/09/05 07:20:28;;;;;;;;;;;;;;;28.15;33.45;100995.56;5073708;28;20058;-65
2023/09/05 07:22:53;;;;;;;;;;;;;;;28.28;33.38;100994.00;5086982;28;19912;-65
2023/09/05 07:25:18;;;;;;;;;;;;;;;28.30;33.48;100991.75;5095200;28;20019;-65
2023/09/05 07:27:43;;;;;;;;;;;;;;;28.29;33.21;100992.06;5095689;28;20284;-65
2023/09/05 07:30:09;;;;;;;;;;;;;;;28.18;33.04;100996.94;5095434;28;20364;-65
2023/09/05 07:32:34;;;;;;;;;;;;;;;28.31;33.21;101000.88;5095709;28;19938;-65
2023/09/05 07:34:59;;;;;;;;;;;;;;;28.34;33.05;101006.63;5095569;28;20263;-65
2023/09/05 07:37:25;;;;;;;;;;;;;;;28.29;32.94;100998.41;5095246;28;19920;-65
2023/09/05 07:39:52;;;;;;;;;;;;;;;28.32;32.86;100996.97;5095408;28;19994;-65
2023/09/05 07:42:17;;;;;;;;;;;;;;;28.46;32.71;101010.88;5095370;28;20368;-65
2023/09/05 07:44:43;;;;;;;;;;;;;;;28.55;32.86;101017.38;5096513;28;19958;-65
2023/09/05 07:47:08;;;;;;;;;;;;;;;28.56;32.10;101014.28;5096187;28;20377;-65
2023/09/05 07:49:39;;;;;;;;;;;;;;;28.67;32.47;101009.41;5095839;28;19912;-65
2023/09/05 07:52:04;;;;;;;;;;;;;;;28.64;31.71;101009.19;5095700;28;19920;-65
2023/09/05 07:54:30;;;;;;;;;;;;;;;28.68;31.01;101013.03;5094856;28;19912;-65
2023/09/05 07:56:55;;;;;;;;;;;;;;;28.72;32.13;101016.81;5100763;28;19912;-65
2023/09/05 07:59:20;;;;;;;;;;;;;;;28.86;31.45;101012.16;5094699;28;19967;-65
2023/09/05 08:01:46;;;;;;;;;;;;;;;29.04;31.70;101015.97;5089392;28;19912;-65
2023/09/05 08:04:11;;;;;;;;;;;;;;;29.14;31.69;101015.81;5074435;28;19925;-65
2023/09/05 08:06:36;;;;;;;;;;;;;;;29.25;31.98;101018.38;5074538;28;19912;-64
2023/09/05 08:09:02;;;;;;;;;;;;;;;29.38;31.51;101017.53;5074539;28;19912;-65
2023/09/05 08:11:27;;;;;;;;;;;;;;;29.49;31.68;101020.94;5074375;28;19913;-65
2023/09/05 08:13:52;;;;;;;;;;;;;;;29.59;31.64;101028.19;5074482;28;20259;-65
2023/09/05 08:16:18;;;;;;;;;;;;;;;29.63;30.26;101023.72;5074627;28;20003;-64
2023/09/05 08:18:43;;;;;;;;;;;;;;;29.68;30.81;101010.59;5083665;28;19935;-65
2023/09/05 08:21:08;;;;;;;;;;;;;;;29.76;31.45;101016.56;5094646;28;19941;-65
2023/09/05 08:23:33;;;;;;;;;;;;;;;29.89;31.29;101019.28;5094501;28;19912;-65
2023/09/05 08:26:00;;;;;;;;;;;;;;;29.99;31.26;101026.53;5094518;28;19912;-65
2023/09/05 08:28:26;;;;;;;;;;;;;;;30.03;30.19;101035.88;5093158;28;20391;-65
2023/09/05 08:30:54;;;;;;;;;;;;;;;30.03;30.40;101035.03;5093974;28;20276;-65
2023/09/05 08:33:19;;;;;;;;;;;;;;;30.04;30.50;101031.16;5094169;28;19919;-65
2023/09/05 08:35:45;;;;;;;;;;;;;;;30.05;30.86;101038.31;5094325;28;20003;-66
2023/09/05 08:38:10;;;;;;;;;;;;;;;30.12;31.18;101041.50;5094212;28;19916;-66
2023/09/05 08:40:35;;;;;;;;;;;;;;;30.16;30.78;101036.16;5092486;28;19941;-66
2023/09/05 08:43:01;;;;;;;;;;;;;;;29.91;29.75;101027.28;5094323;28;20007;-66
2023/09/05 08:45:29;;;;;;;;;;;;;;;29.88;30.17;101031.50;5094145;28;19997;-66
2023/09/05 08:47:54;;;;;;;;;;;;;;;29.85;29.99;101026.56;5093656;28;19912;-65
2023/09/05 08:50:19;;;;;;;;;;;;;;;29.71;28.89;101028.50;5094012;28;19912;-65
2023/09/05 08:52:46;;;;;;;;;;;;;;;29.66;30.06;101023.91;5093496;28;19916;-65
2023/09/05 08:55:12;;;;;;;;;;;;;;;29.66;29.78;101025.84;5097373;28;20242;-65
2023/09/05 08:57:40;;;;;;;;;;;;;;;29.57;29.93;101022.16;5114032;28;19912;-65
2023/09/05 09:00:09;;;;;;;;;;;;;;;29.60;29.19;101016.81;5113085;28;19916;-65
2023/09/05 09:02:37;;;;;;;;;;;;;;;29.70;30.01;101018.59;5101887;28;19929;-65
2023/09/05 09:05:03;;;;;;;;;;;;;;;29.78;29.77;101011.53;5093491;28;19920;-65
2023/09/05 09:07:29;;;;;;;;;;;;;;;29.72;30.14;101002.47;5093663;28;19961;-65
2023/09/05 09:09:54;;;;;;;;;;;;;;;29.78;30.00;101005.97;5093841;28;19912;-65
2023/09/05 09:12:32;;;;;;;;;;;;;;;29.83;29.73;101006.69;5093549;28;19912;-65
2023/09/05 09:15:10;;;;;;;;;;;;;;;29.70;29.82;101001.97;5093457;28;19912;-66
2023/09/05 09:17:42;;;;;;;;;;;;;;;29.83;29.89;101006.69;5093471;28;20011;-66
2023/09/05 09:20:14;;;;;;;;;;;;;;;29.92;29.47;101006.75;5093797;28;20399;-65
2023/09/05 09:22:40;;;;;;;;;;;;;;;29.85;28.66;101004.44;5093796;28;19935;-65
2023/09/05 09:25:14;;;;;;;;;;;;;;;29.88;29.56;100998.28;5093393;28;20388;-65
2023/09/05 09:27:41;;;;;;;;;;;;;;;29.96;29.29;101004.19;5093257;28;19919;-65
2023/09/05 09:30:08;;;;;;;;;;;;;;;29.96;28.36;101009.72;5092869;28;20337;-65
2023/09/05 09:32:34;;;;;;;;;;;;;;;29.89;28.54;101001.84;5093191;28;19912;-65
2023/09/05 09:34:59;;;;;;;;;;;;;;;29.91;29.04;101005.13;5093408;28;19918;-65
2023/09/05 09:37:25;;;;;;;;;;;;;;;30.02;28.36;101011.25;5092583;28;20273;-65
2023/09/05 09:40:00;;;;;;;;;;;;;;;30.08;29.01;101026.63;5093160;28;19955;-65
2023/09/05 09:42:26;;;;;;;;;;;;;;;30.00;29.14;101022.66;5093218;28;19956;-65
2023/09/05 09:44:52;;;;;;;;;;;;;;;30.15;28.99;101023.44;5091699;28;19954;-65
2023/09/05 09:47:17;;;;;;;;;;;;;;;30.18;29.07;101020.88;5092736;28;19918;-65
2023/09/05 09:49:45;;;;;;;;;;;;;;;30.13;28.72;101009.91;5093091;28;19912;-66
2023/09/05 09:52:12;;;;;;;;;;;;;;;30.28;28.95;101003.19;5092950;28;19924;-66
2023/09/05 09:54:38;;;;;;;;;;;;;;;30.29;28.21;101004.78;5092418;28;19912;-65
2023/09/05 09:57:04;;;;;;;;;;;;;;;30.38;28.57;101000.16;5072671;28;20536;-65
2023/09/05 09:59:35;;;;;;;;;;;;;;;30.45;28.33;100999.75;5072522;28;19969;-65
2023/09/05 10:02:01;;;;;;;;;;;;;;;30.44;28.40;100996.16;5079450;28;20369;-65
2023/09/05 10:04:27;;;;;;;;;;;;;;;30.47;27.65;100994.69;5092397;28;19927;-65
2023/09/05 10:06:54;;;;;;;;;;;;;;;30.53;27.67;100990.66;5092595;28;19912;-65
2023/09/05 10:09:20;;;;;;;;;;;;;;;30.58;27.58;100989.72;5092696;28;19912;-65
2023/09/05 10:11:45;;;;;;;;;;;;;;;30.53;27.90;100984.31;5095227;28;20439;-65
2023/09/05 10:14:11;;;;;;;;;;;;;;;30.82;27.91;100995.72;5099460;28;20015;-65
2023/09/05 10:16:37;;;;;;;;;;;;;;;31.03;28.18;100979.38;5099365;28;19912;-65
2023/09/05 10:19:03;;;;;;;;;;;;;;;31.16;27.82;100980.41;5099287;28;19962;-65
2023/09/05 10:21:29;;;;;;;;;;;;;;;31.44;28.27;100975.47;5099446;28;19961;-65
2023/09/05 10:23:55;;;;;;;;;;;;;;;31.46;27.77;100980.66;5099416;28;20003;-65
2023/09/05 10:26:21;;;;;;;;;;;;;;;31.55;27.50;100980.72;5099484;28;20011;-65
2023/09/05 10:28:46;;;;;;;;;;;;;;;31.69;26.73;100983.38;5098904;28;19912;-65
2023/09/05 10:31:14;;;;;;;;;;;;;;;31.80;27.08;100976.38;5099411;28;19965;-65
2023/09/05 10:33:43;;;;;;;;;;;;;;;31.93;26.65;100977.38;5099130;28;20002;-65
2023/09/05 10:36:28;;;;;;;;;;;;;;;32.13;26.55;100978.69;5099280;28;20334;-65
2023/09/05 10:38:55;;;;;;;;;;;;;;;32.32;26.47;100981.16;5088076;28;20381;-65
2023/09/05 10:41:36;;;;;;;;;;;;;;;32.44;25.51;100981.28;5099321;28;20007;-65
2023/09/05 10:44:02;;;;;;;;;;;;;;;32.61;26.40;100983.22;5099474;28;20343;-65
2023/09/05 10:46:27;;;;;;;;;;;;;;;32.85;26.27;100979.91;5099187;28;19977;-65
2023/09/05 10:49:08;;;;;;;;;;;;;;;32.95;25.02;100985.09;5097869;28;20015;-65
2023/09/05 10:51:34;;;;;;;;;;;;;;;33.23;25.98;100978.28;5099076;28;19923;-65
2023/09/05 10:54:19;;;;;;;;;;;;;;;33.24;24.80;100972.41;5098467;28;19912;-65
2023/09/05 10:56:44;;;;;;;;;;;;;;;33.32;25.04;100979.06;5116662;28;19965;-65
2023/09/05 10:59:10;;;;;;;;;;;;;;;33.44;24.83;100983.94;5119638;28;20280;-65
2023/09/05 11:01:36;;;;;;;;;;;;;;;33.54;23.78;100976.00;5115698;28;20318;-65
2023/09/05 11:04:08;;;;;;;;;;;;;;;33.80;24.56;100982.56;5098835;28;19980;-65
2023/09/05 11:06:34;;;;;;;;;;;;;;;34.12;25.38;100970.66;5099145;28;19973;-65
2023/09/05 11:09:06;;;;;;;;;;;;;;;34.41;25.19;100985.69;5099326;28;19916;-65
2023/09/05 11:11:32;;;;;;;;;;;;;;;34.52;23.91;100981.28;5099169;28;19912;-65
2023/09/05 11:13:57;;;;;;;;;;;;;;;34.59;23.49;100991.09;5098913;28;20413;-65
2023/09/05 11:16:24;;;;;;;;;;;;;;;34.72;22.42;100986.41;5098917;28;19918;-65
2023/09/05 11:18:55;;;;;;;;;;;;;;;34.77;22.50;100980.56;5098909;28;19996;-65
2023/09/05 11:21:22;;;;;;;;;;;;;;;34.81;22.13;100979.53;5098810;28;19916;-66
2023/09/05 11:23:54;;;;;;;;;;;;;;;34.81;23.60;100970.38;5095721;28;19955;-65
2023/09/05 11:26:20;;;;;;;;;;;;;;;34.91;22.44;100972.69;5095467;28;19919;-66
2023/09/05 11:28:48;;;;;;;;;;;;;;;35.00;22.29;100983.75;5095593;28;19916;-66
2023/09/05 11:31:14;;;;;;;;;;;;;;;35.05;22.60;100977.94;5095473;28;19923;-66
2023/09/05 11:33:39;;;;;;;;;;;;;;;35.41;22.61;100976.34;5095495;28;19938;-66
2023/09/05 11:36:04;;;;;;;;;;;;;;;35.61;22.78;100974.56;5095479;28;19953;-65
2023/09/05 11:38:32;;;;;;;;;;;;;;;35.86;22.59;100970.56;5095393;28;19912;-65
2023/09/05 11:40:59;;;;;;;;;;;;;;;36.16;22.68;100975.84;5095137;28;19916;-66
2023/09/05 11:43:24;;;;;;;;;;;;;;;36.24;20.90;100968.50;5095095;28;20375;-65
2023/09/05 11:45:53;;;;;;;;;;;;;;;36.39;21.75;100980.91;5095200;28;19916;-65
2023/09/05 11:48:19;;;;;;;;;;;;;;;36.43;20.14;100984.59;5095182;28;19962;-65
2023/09/05 11:50:45;;;;;;;;;;;;;;;36.61;21.44;100974.69;5095029;28;19920;-66
2023/09/05 11:53:13;;;;;;;;;;;;;;;36.62;20.27;100965.13;5095119;28;19918;-65
2023/09/05 11:55:39;;;;;;;;;;;;;;;36.77;20.97;100957.94;5102642;28;19912;-65
2023/09/05 11:58:05;;;;;;;;;;;;;;;36.84;20.19;100965.72;5115348;28;19935;-66
2023/09/05 12:00:32;;;;;;;;;;;;;;;36.97;21.08;100972.03;5114146;28;19916;-66
2023/09/05 12:02:59;;;;;;;;;;;;;;;37.06;20.08;100975.47;5099707;28;20002;-65
2023/09/05 12:05:26;;;;;;;;;;;;;;;37.11;20.82;100971.56;5094682;28;19978;-65
2023/09/05 12:07:51;;;;;;;;;;;;;;;37.35;20.53;100971.41;5094769;28;19912;-66
2023/09/05 12:10:17;;;;;;;;;;;;;;;37.61;21.42;100972.75;5094843;28;19919;-66
2023/09/05 12:12:55;;;;;;;;;;;;;;;37.96;20.21;100971.94;5094836;28;19912;-66
2023/09/05 12:15:50;;;;;;;;;;;;;;;38.07;19.39;100966.56;5095033;28;19912;-66
2023/09/05 12:18:16;;;;;;;;;;;;;;;38.27;20.09;100965.38;5081377;28;19916;-66
2023/09/05 12:20:53;;;;;;;;;;;;;;;38.46;18.89;100958.13;5094748;28;20297;-66
2023/09/05 12:23:22;;;;;;;;;;;;;;;38.50;18.46;100956.19;5094268;28;19969;-66
2023/09/05 12:25:47;;;;;;;;;;;;;;;38.61;19.24;100967.63;5092837;28;19916;-64
2023/09/05 12:28:20;;;;;;;;;;;;;;;38.62;20.19;100963.66;5093965;28;20296;-66
2023/09/05 12:30:47;;;;;;;;;;;;;;;38.42;18.66;100962.84;5093899;28;19923;-65